Terminal Aerodrome Forecast
Issued by NWS

Home | Current Version | Previous Version | Graphics & Text | Print | Product List | Glossary On
Versions: 1 2 3 4 5 6 7 8 9 10 11 12 13 14
000
FTUS43 KMPX 210520
TAFRWF
TAF
KRWF 210520Z 2106/2206 31015G23KT P6SM SCT200
     FM211000 32021G30KT P6SM SCT035 BKN080
      TEMPO 2110/2114 BKN035
     FM211600 32024G33KT P6SM SCT200
     FM212200 32016G23KT P6SM SKC
     FM220100 31011KT P6SM SKC=

USA.gov is the U.S. government's official web portal to all federal, state and local government web resources and services.